Felipe Bianchi

Olheiro-Chefe - Belgrano
17 Jul 2027
Sábado
Processo

Personalidade

Adaptabilidade (20) Ambição (13) Controvérsia (5) Lealdade (10) Pressão (1) Profissionalismo (14) Espírito Esportivo (11) Temperamento (1)

Perfil

Estilo de Treinamento Democrático
Licença Continental A
Determinação 12
Gestão de Pessoas 5
Motivação 4
Disciplina 8
Satisfação no Trabalho
100%
Fadiga
0%
Função Olheiro-Chefe
Salário 38.4K p/s
Contrato 14.03.2029

Desempenho

Comportamento Bom
Eficácia do Treinamento
26%
Desenvolvimento do Jogador
25%
Prevenção de Lesões
20%
Implementação Tática
35%

Eventos Recentes

Participou de uma reunião de recrutamento agora
Recomendou um alvo de transferência agora
Recomendou um alvo de transferência agora
Recomendou um alvo de transferência agora
Recomendou um alvo de transferência 7d atrás
Recomendou um alvo de transferência 7d atrás
Recomendou um alvo de transferência 7d atrás
Recomendou um alvo de transferência 7d atrás

Monitorando agora

199
Jogador Clube Status Habilidade Confiança Observado Última observação Último voto
Lucas Zelaya Deportivo Pasto Ativo 93 / 89 40% 1 05.06.2027 -
Sebastián Flores Rayo Vallecano Ativo 98 / 118 40% 1 05.06.2027 -
Duarte Cunha Porto Ativo 100 / 98 40% 1 05.06.2027 -
Manu Rodríguez Gijón Ativo 100 / 109 40% 1 03.06.2027 -
Diogo Guzmán Montevideo City Torque Ativo 112 / 113 40% 1 03.06.2027 -
Bazoumana Touré Newcastle United Ativo 142 / 135 40% 1 03.06.2027 -
Patrick Berg Borussia Mönchengladbach Ativo 141 / 141 62% 1 01.06.2027 Aprovar
Ulises Vera Quilmes Negociando 115 / 119 76% 1 01.06.2027 Aprovar
Kostantis Tzolakis Hull City Ativo 143 / 136 40% 12 29.05.2027 -
Myles Roberts Doncaster Rovers Ativo 109 / 112 40% 7 29.05.2027 -
Florentino Luís Ipswich Town Ativo 135 / 143 40% 3 29.05.2027 -
Tristan Crama Millwall Ativo 131 / 115 40% 2 29.05.2027 -
José Córdoba Norwich City Ativo 116 / 120 40% 1 29.05.2027 -
Josh Keeley Luton Town Ativo 121 / 136 40% 7 27.05.2027 -
Killian Cahill Leyton Orient Ativo 115 / 119 40% 6 26.05.2027 -
Matteo Sorzi Carpi Ativo 109 / 101 40% 5 26.05.2027 -
Federico Losas Chacarita Juniors Ativo 109 / 113 40% 1 25.05.2027 -
Gianluca Saro Foggia Ativo 121 / 104 40% 3 24.05.2027 -
Elia Boseggia Novara Ativo 106 / 120 40% 2 24.05.2027 -
Murphy Cooper Plymouth Argyle Ativo 123 / 121 40% 9 23.05.2027 -
Frankarlos Benítez Caracas Ativo 101 / 107 40% 4 23.05.2027 -
Will Dennis Milton Keynes Dons Ativo 118 / 116 40% 8 22.05.2027 -
Ignacio Perruzzi Celta Ativo 132 / 132 40% 4 19.05.2027 -
Valerio Boffelli Cavese Ativo 103 / 115 40% 5 19.05.2027 -
Davide Mastrantonio Latina Ativo 96 / 104 40% 1 19.05.2027 -
Shea Charles Southampton Ativo 142 / 136 40% 1 19.05.2027 -
Tom Booth Crewe Alexandra Ativo 101 / 112 40% 6 17.05.2027 -
Brooke Norton-Cuffy Hull City Ativo 138 / 141 40% 3 17.05.2027 -
Oliver Skipp Leicester City Ativo 138 / 137 40% 1 17.05.2027 -
Enzo Vázquez Central Norte Ativo 113 / 111 40% 3 15.05.2027 -
Francesco D'Alterio Ternana Ativo 111 / 102 40% 3 15.05.2027 -
Niccolò Chiorra Casarano Ativo 112 / 99 40% 3 13.05.2027 -
Cristopher Varela Deportivo La Guaira Ativo 124 / 116 40% 5 12.05.2027 -
Felipe Zenobio Tigre Ativo 134 / 129 40% 3 12.05.2027 -
Samuele Vitale Ascoli Ativo 108 / 106 40% 1 11.05.2027 -
Nathan Bishop AFC Wimbledon Ativo 105 / 108 40% 3 10.05.2027 -
Max Johnston Derby County Ativo 134 / 127 40% 4 10.05.2027 -
Lorenzo Palmisani Frosinone Ativo 126 / 123 40% 3 08.05.2027 -
Kermit Erasmus Platinum Stars Ativo 110 / 113 40% 4 06.05.2027 -
Luca Gemello Perugia Ativo 120 / 119 40% 2 05.05.2027 -
Anthony Patterson Wrexham Ativo 132 / 136 40% 6 04.05.2027 -
Max Bird Birmingham Ativo 134 / 127 40% 3 04.05.2027 -
Francisco Coirolo Atenas Ativo 106 / 107 40% 1 04.05.2027 -
Kayne Ramsay Charlton Athletic Ativo 133 / 129 40% 1 04.05.2027 -
Lucas Da Cunha Como Ativo 153 / 140 40% 1 03.05.2027 -
Ethan Galbraith Swansea City Ativo 134 / 132 40% 3 30.04.2027 -
Ludovico Del Sorbo Sorrento Ativo 111 / 121 40% 2 30.04.2027 -
Joe Rankin-Costello Charlton Athletic Ativo 120 / 117 40% 1 30.04.2027 -
Radek Vítek Middlesbrough Ativo 139 / 146 40% 11 28.04.2027 -
George Wickens Lincoln City Ativo 114 / 109 40% 6 28.04.2027 -
Jacob Greaves Ipswich Town Ativo 129 / 129 40% 4 28.04.2027 -
Tomás Lingua Burnley Ativo 105 / 102 40% 3 28.04.2027 -
Teden Mengi Luton Town Ativo 125 / 116 40% 2 28.04.2027 -
Zach Hemming Chesterfield Ativo 101 / 105 40% 8 27.04.2027 -
Fran Vieites Exeter City Ativo 124 / 117 40% 6 25.04.2027 -
Carl Rushworth Coventry City Ativo 131 / 148 40% 10 24.04.2027 -
Williams Mahlangu SuperSport United Ativo 109 / 116 40% 3 22.04.2027 -
Joshua Oluwayemi Walsall Ativo 97 / 99 40% 4 19.04.2027 -
Martin Velichkov Lokomotiv Sofia Ativo 115 / 111 40% 2 18.04.2027 -
Ousmane Diakité West Bromwich Albion Ativo 128 / 126 40% 2 18.04.2027 -
Gabriele Baldi AlbinoLeffe Ativo 95 / 105 40% 1 18.04.2027 -
Alfie Doughty Millwall Ativo 137 / 127 40% 1 16.04.2027 -
Harry Clarke Preston Ativo 131 / 132 40% 2 13.04.2027 -
Bobby Thomas Coventry City Ativo 128 / 127 40% 1 13.04.2027 -
Sergio Barlocco Trento Ativo 118 / 112 40% 1 12.04.2027 -
Filip Marschall Stevenage Ativo 111 / 122 40% 3 07.04.2027 -
Bosun Lawal Stoke City Ativo 120 / 128 40% 2 07.04.2027 -
Lewis Gibson Preston Ativo 122 / 130 40% 3 03.04.2027 -
William Rovida Pro Patria Ativo 103 / 98 40% 2 03.04.2027 -
Tim Iroegbunam Hull City Ativo 140 / 130 40% 1 03.04.2027 -
Bento Lokomotiv Moscow Ativo 127 / 128 40% 7 29.03.2027 -
Alexandr Koryakin Krasnodar Ativo 115 / 106 40% 1 28.03.2027 -
Tariq Lamptey Queens Park Rangers Ativo 129 / 135 40% 1 28.03.2027 -
Aidan Morris Middlesbrough Ativo 135 / 134 40% 1 28.03.2027 -
Michael Cooper Sheffield United Ativo 136 / 125 40% 11 26.03.2027 -
Samu Maccabi Netanya Ativo 120 / 111 40% 3 26.03.2027 -
Elia Summa Picerno Ativo 117 / 117 40% 1 20.03.2027 -
Josh Doig Sassuolo Ativo 139 / 137 40% 1 19.03.2027 -
Milan van Ewijk Coventry City Ativo 140 / 129 40% 1 19.03.2027 -
Valentín Barco Chelsea Ativo 137 / 136 40% 2 17.03.2027 Mais informações
Svetoslav Vutsov Levski Ativo 130 / 120 40% 2 14.03.2027 -
Arthur Beroe Ativo 118 / 122 40% 2 12.03.2027 -
Mohamed Camara Asante Kotoko Ativo 90 / 99 40% 2 10.03.2027 -
Lukas Jensen Millwall Ativo 117 / 115 40% 3 09.03.2027 -
Pelle Mattsson Norwich City Ativo 125 / 114 40% 2 07.03.2027 -
Osagie Onisodumeya Al Gaish Ativo 99 / 107 40% 4 05.03.2027 -
Daniil Frolkin Shinnik Ativo 98 / 106 40% 1 05.03.2027 -
Đorđe Petrović Bournemouth Ativo 153 / 158 40% 6 04.03.2027 -
Luke McNally Bristol City Ativo 125 / 125 40% 2 04.03.2027 -
Isma Ruiz Córdoba Ativo 128 / 133 40% 1 04.03.2027 -
Franck Fomeyem Córdoba Ativo 119 / 117 40% 1 01.03.2027 -
Taye Ashby-Hammond Cheltenham Town Ativo 114 / 103 40% 2 26.02.2027 -
Jordan Amissah Burton Albion Ativo 100 / 92 40% 4 25.02.2027 -
Thiago Silvero Sevilla Ativo 131 / 136 40% 1 20.02.2027 -
Oleksandr Saputin Zorya Ativo 107 / 130 40% 2 18.02.2027 -
Dara O'Shea Ipswich Town Ativo 137 / 126 40% 1 17.02.2027 -
Maksym Kovaliov Spartak 1918 Ativo 101 / 100 40% 1 13.02.2027 -
Denys Ihnatenko Livyi Bereh Ativo 108 / 113 40% 1 07.02.2027 -
Matteo Rizzo Cosenza Ativo 107 / 117 40% 1 06.02.2027 -
Federico Varese Racing Ativo 109 / 120 40% 7 04.02.2027 -
Anton Zhylkin Karpaty Ativo 104 / 94 40% 3 03.02.2027 -
Federico Gattoni Ascoli Ativo 127 / 127 40% 1 03.02.2027 -
Ruslan Neshcheret Dynamo Kyiv Ativo 115 / 113 40% 3 29.01.2027 -
Fabrizio Correa Nacional Ativo 123 / 113 40% 1 18.01.2027 -
Nicolás Sumavil Platense Ativo 119 / 122 40% 6 14.01.2027 -
Igor Nikić Lech Ativo 128 / 107 40% 3 12.01.2027 -
Hugo Gallardo Veracruz Ativo 91 / 95 40% 1 10.01.2027 -
Alan Marinelli Sparta Prague Ativo 111 / 109 40% 1 28.12.2026 -
Esteban Glellel Quilmes Ativo 113 / 111 40% 4 03.12.2026 -
Toni Fruk Valladolid Ativo 132 / 133 66% 1 01.12.2026 Aprovar
Erick Sánchez Valladolid Negociando 139 / 139 68% 1 01.12.2026 Aprovar
Stanislav Agkatsev TSG Hoffenheim Negociando 132 / 133 66% 1 01.12.2026 Aprovar
Jovon Makama Norwich City Ativo 125 / 127 40% 1 01.12.2026 -
Matías Contrera Northampton Town Ativo 98 / 111 40% 1 30.11.2026 -
Gianfranco Leiva Gillingham Ativo 84 / 97 40% 1 30.11.2026 -
Agustín Buffa Wanderers Ativo 99 / 97 40% 6 29.11.2026 -
Alexis Cuello San Lorenzo Ativo 118 / 120 40% 1 29.11.2026 -
Leandro Godoy CSKA Sofia Ativo 121 / 121 40% 1 29.11.2026 -
Arijanet Murić Sassuolo Ativo 141 / 138 40% 1 29.11.2026 -
Nicolás Azambuja Danubio Ativo 113 / 129 40% 2 25.11.2026 -
Lucas Bruera Carabobo Ativo 120 / 117 40% 7 22.11.2026 -
Grégoire Coudert Burnley Ativo 127 / 132 40% 3 22.11.2026 -
Franco Carretero Deportivo Lara Ativo 94 / 100 40% 1 22.11.2026 -
Balázs Tóth Blackburn Rovers Ativo 129 / 133 40% 2 21.11.2026 -
Luke Southwood Bristol Rovers Ativo 105 / 109 40% 1 21.11.2026 -
Diego Enríquez Sporting Cristal Ativo 133 / 128 40% 5 20.11.2026 -
Lautaro Petruchi Gimnasia y Esgrima Ativo 116 / 109 40% 6 20.11.2026 -
Dean Henderson Crystal Palace Ativo 152 / 148 40% 2 20.11.2026 -
Renato Solís Sporting Cristal Ativo 125 / 127 40% 2 18.11.2026 -
Simón Meza Cerrito Ativo 80 / 90 40% 2 17.11.2026 -
Luther Tau SuperSport United Ativo 112 / 113 40% 2 17.11.2026 -
Luciano Jachfe Nueva Chicago Ativo 116 / 108 40% 2 15.11.2026 -
Angel Zamudio CFR Cluj Ativo 118 / 116 40% 3 15.11.2026 -
Nicolás Rossi Juventud Ativo 111 / 115 40% 2 13.11.2026 -
Rodrigo Villalba Libertad Ativo 96 / 103 40% 1 12.11.2026 -
Julián Brea Cobresal Ativo 108 / 107 40% 1 12.11.2026 -
Bautista Tomatis Racing Ativo 105 / 114 40% 1 12.11.2026 -
Zacarías López Iquique Ativo 100 / 94 40% 2 07.11.2026 -
Lautaro Amadé Defensa y Justicia Ativo 115 / 122 40% 1 06.11.2026 -
Agustín Lastra Estudiantes Ativo 102 / 108 40% 2 05.11.2026 -
James Trafford Leeds United Ativo 143 / 142 40% 2 05.11.2026 -
Julián Vignolo Toulouse FC Ativo 98 / 105 40% 1 04.11.2026 -
Juan Moreno La Luz Ativo 116 / 117 40% 3 02.11.2026 -
Francisco Casanova Cerrito Ativo 104 / 110 40% 4 02.11.2026 -
Joaquín Silva Plaza Colonia Ativo 102 / 104 40% 7 29.10.2026 -
Tadeo Allende Inter Miami CF Ativo 131 / 112 40% 1 29.10.2026 -
Agustín Venezia Iquique Ativo 110 / 112 40% 1 29.10.2026 -
Ángel Maciel Tacuarembo Ativo 106 / 99 40% 3 28.10.2026 -
Tomás Ahumada Audax Italiano Ativo 110 / 110 40% 2 28.10.2026 -
Matías Dufour Sportivo Trinidense Ativo 107 / 107 40% 3 25.10.2026 -
Omar Carabalí O'Higgins Ativo 106 / 106 40% 4 25.10.2026 -
Francisco Salerno Defensores Unidos Ativo 108 / 107 40% 1 24.10.2026 -
Drake Callender Minnesota United FC Ativo 120 / 132 40% 2 20.10.2026 -
Jonás Luna Wanderers Ativo 109 / 114 40% 2 17.10.2026 -
Dylan Salvo Defensores Unidos Ativo 94 / 102 40% 2 17.10.2026 -
Federico Bonansea San Martín SJ Ativo 108 / 109 40% 2 17.10.2026 -
Matt Freese New York City Ativo 124 / 120 40% 1 17.10.2026 -
Lucas Verza Olimpia Ativo 110 / 114 40% 3 15.10.2026 -
Álvaro Fernández Deportivo La Coruña Ativo 130 / 144 40% 4 14.10.2026 -
Antony Medrano Giresunspor Ativo 98 / 98 40% 1 14.10.2026 -
Facundo de León Progreso Ativo 108 / 104 40% 1 14.10.2026 -
Sebastián Lentinelly Olimpia Ativo 103 / 103 40% 5 11.10.2026 -
Favio Cabral Mitre Ativo 114 / 124 40% 1 11.10.2026 -
David Fernández O'Higgins Ativo 108 / 112 40% 4 07.10.2026 -
Iwan Morgan Grimsby Town Ativo 110 / 108 40% 1 07.10.2026 -
Alan Torterolo Defensor Sporting Ativo 85 / 94 40% 3 06.10.2026 -
Pedro González Cerro Largo Ativo 114 / 104 40% 3 04.10.2026 -
Carlos Moreno Pachuca Ativo 135 / 132 40% 4 03.10.2026 -
Nahuel Pezzini Arsenal Ativo 110 / 106 40% 2 03.10.2026 -
Andrés Gudiño Cruz Azul Ativo 126 / 114 40% 2 02.10.2026 -
Williams Barlasina Fortaleza CEIF Ativo 108 / 112 40% 4 29.09.2026 -
Adriano Freitas Deportivo Maldonado Ativo 110 / 102 40% 4 26.09.2026 -
Nicolás Forastiero Deportivo Maldonado Ativo 98 / 103 40% 3 24.09.2026 -
Nicolás Campisi Sportivo Luqueno Ativo 114 / 117 40% 2 23.09.2026 -
Mauro Silveira Junior Ativo 123 / 120 40% 3 22.09.2026 -
Franco Petroli Lanús Ativo 130 / 121 40% 2 22.09.2026 -
Héctor Holguín Morelia Ativo 116 / 109 40% 2 21.09.2026 -
Luca Langoni New England Revolution Ativo 123 / 125 40% 1 20.09.2026 -
Emiliano González Almagro Ativo 110 / 121 40% 1 20.09.2026 -
Agustín Requena Progreso Ativo 101 / 101 40% 2 19.09.2026 -
Patrick Preciado Deportivo Pasto Ativo 108 / 105 40% 2 19.09.2026 -
Inti López River Plate Ativo 93 / 97 40% 2 15.09.2026 -
Víctor Cabezas Union Magdalena Ativo 114 / 121 40% 1 09.09.2026 -
Roameth Romaña Llaneros Ativo 99 / 97 40% 2 08.09.2026 -
Diego Romero Universitario Ativo 117 / 116 40% 2 29.08.2026 -
Carlos da Rosa Cerro Ativo 93 / 92 40% 1 29.08.2026 -
Jefferson Mejia Cortulua Ativo 114 / 126 40% 2 26.08.2026 -
Gonzalo Falcón Cienciano Ativo 112 / 117 40% 1 25.08.2026 -
Lucas Machado Defensor Sporting Ativo 104 / 97 40% 1 21.08.2026 -
Andrés Samurio Tacuarembo Ativo 106 / 104 40% 1 18.08.2026 -
Felipe Serrés Wanderers Ativo 95 / 96 40% 1 18.08.2026 -
Bruno Hernández Cerro Largo Ativo 89 / 101 40% 1 18.08.2026 -
Kevin Angulo America de Cali Ativo 93 / 110 40% 1 16.08.2026 -
Manuel Rodríguez Millonarios Ativo 85 / 89 40% 1 16.08.2026 -
Dunkan Dorrego Juventud Ativo 86 / 97 40% 1 15.08.2026 -
Fernando Tapia Club America Ativo 117 / 119 40% 1 07.08.2026 -
Aldo Pérez Guarani Ativo 109 / 105 40% 1 04.08.2026 -
Rodrigo Morínigo Libertad Ativo 114 / 110 40% 1 03.08.2026 -
Victor Aznar Cádiz Ativo 119 / 122 40% 1 02.08.2026 -